Terminal Aerodrome Forecast
Issued by NWS

Home | Current Version | Previous Version | Text Only | Print | Product List | Glossary On
Versions: 1 2 3 4 5 6 7 8 9 10 11 12 13 14
000
FTUS42 KILM 192300
TAFCRE
TAF
KCRE 192328Z 2000/2024 VRB04KT P6SM VCSH FEW020 FEW040 SCT100
     FM200400 VRB04KT 5SM BR SCT050 BKN120
     FM201300 30004KT P6SM FEW050 SCT250
     FM201800 20008KT P6SM VCSH SCT040=

USA.gov is the U.S. government's official web portal to all federal, state and local government web resources and services.